Pagrindinis puslapis
METAR-TAF:

METAR-TAF

Oro uostai :

Kiruna, Švedija

platuma: 67-49N, ilguma: 020-20E, Aukštis: 452 m

Dabartinis oras

Ataskaita buvo paskelbta 39 minutes, ne 13:20 UTC
Vėjas 11 kt iš Šiaurės
Temperatūra -6°C
Drėgmė 41%
Slėgis 1019 hPa
Matomumas 10 km arba daugiau

METAR: ESNQ 201320Z AUTO 01011KT 9999 FEW160/// SCT190/// M06/M17 Q1019

Laikas: 15:59 (13:59 UTC)

Prognozė

Ataskaita buvo paskelbta 2 valandos ir 29 minutes, ne 11:30 UTC
Prognozė galioja nuo 20 metu 12 UTC su 20 metu 14 UTC
Vėjas 10 kt iš Šiaurės
Matomumas 10 km arba daugiau
nėra debesų žemiau 1500 m ir nėra kamuolinių lietaus debesų

TAF: ESNQ 201130Z 2012/2014 01010KT CAVOK

Orai ataskaitas ir orų prognozės (METAR, TAF).

turimą stotys yra geltonos ir raudonos taškus žemėlapyje.

Perkelti pele per norėdami pamatyti stoties vardą.

Tada spustelėkite, norėdami matyti oro stebėjimo ir prognozės.

Norėdami pakeisti žemėlapį: spustelėkite ant žalios mygtukų su juodo kryžiaus žemyn,; žalią mygtuką su brūkšneliu, jei norite nutolinti; arba žalių rodyklių gretimoms žemėlapius.


METAR-TAF: